sensor_id;sensor_type;location;lat;lon;timestamp;temperature;humidity
31867;DHT22;18431;45.580;-122.680;2022-08-24T00:02:19;25.10;51.80
31867;DHT22;18431;45.580;-122.680;2022-08-24T00:04:49;25.10;51.80
31867;DHT22;18431;45.580;-122.680;2022-08-24T00:07:20;25.20;51.80
31867;DHT22;18431;45.580;-122.680;2022-08-24T00:09:50;25.20;51.70
31867;DHT22;18431;45.580;-122.680;2022-08-24T00:12:24;25.30;51.70
31867;DHT22;18431;45.580;-122.680;2022-08-24T00:14:53;25.30;51.70
31867;DHT22;18431;45.580;-122.680;2022-08-24T00:17:23;25.40;51.50
31867;DHT22;18431;45.580;-122.680;2022-08-24T00:19:54;25.30;51.40
31867;DHT22;18431;45.580;-122.680;2022-08-24T00:22:23;25.30;51.60
31867;DHT22;18431;45.580;-122.680;2022-08-24T00:24:53;25.20;51.60
31867;DHT22;18431;45.580;-122.680;2022-08-24T00:27:26;25.10;51.60
31867;DHT22;18431;45.580;-122.680;2022-08-24T00:29:56;25.00;51.70
31867;DHT22;18431;45.580;-122.680;2022-08-24T00:32:26;25.00;51.90
31867;DHT22;18431;45.580;-122.680;2022-08-24T00:34:57;24.90;51.80
31867;DHT22;18431;45.580;-122.680;2022-08-24T00:37:28;25.00;51.90
31867;DHT22;18431;45.580;-122.680;2022-08-24T00:40:00;25.00;51.80
31867;DHT22;18431;45.580;-122.680;2022-08-24T00:42:30;25.10;51.80
31867;DHT22;18431;45.580;-122.680;2022-08-24T00:45:00;25.10;51.80
31867;DHT22;18431;45.580;-122.680;2022-08-24T00:47:33;25.20;51.70
31867;DHT22;18431;45.580;-122.680;2022-08-24T00:50:11;25.30;51.70
31867;DHT22;18431;45.580;-122.680;2022-08-24T00:52:41;25.30;51.60
31867;DHT22;18431;45.580;-122.680;2022-08-24T00:55:27;25.30;51.40
31867;DHT22;18431;45.580;-122.680;2022-08-24T00:57:53;25.30;51.40
31867;DHT22;18431;45.580;-122.680;2022-08-24T01:00:25;25.20;51.20
31867;DHT22;18431;45.580;-122.680;2022-08-24T01:02:56;25.10;51.60
31867;DHT22;18431;45.580;-122.680;2022-08-24T01:05:29;25.10;51.60
31867;DHT22;18431;45.580;-122.680;2022-08-24T01:07:59;25.00;51.70
31867;DHT22;18431;45.580;-122.680;2022-08-24T01:10:33;25.00;51.80
31867;DHT22;18431;45.580;-122.680;2022-08-24T01:13:04;25.10;51.90
31867;DHT22;18431;45.580;-122.680;2022-08-24T01:15:37;25.10;51.90
31867;DHT22;18431;45.580;-122.680;2022-08-24T01:18:11;25.20;51.70
31867;DHT22;18431;45.580;-122.680;2022-08-24T01:21:21;25.20;51.70
31867;DHT22;18431;45.580;-122.680;2022-08-24T01:24:01;25.30;51.70
31867;DHT22;18431;45.580;-122.680;2022-08-24T01:26:41;25.30;51.50
31867;DHT22;18431;45.580;-122.680;2022-08-24T01:29:13;25.30;51.50
31867;DHT22;18431;45.580;-122.680;2022-08-24T01:31:42;25.20;51.50
31867;DHT22;18431;45.580;-122.680;2022-08-24T01:34:11;25.10;51.50
31867;DHT22;18431;45.580;-122.680;2022-08-24T01:36:46;25.00;51.70
31867;DHT22;18431;45.580;-122.680;2022-08-24T01:39:33;25.00;51.70
31867;DHT22;18431;45.580;-122.680;2022-08-24T01:42:04;25.00;51.50
31867;DHT22;18431;45.580;-122.680;2022-08-24T01:44:35;25.10;51.30
31867;DHT22;18431;45.580;-122.680;2022-08-24T01:47:07;25.10;51.00
31867;DHT22;18431;45.580;-122.680;2022-08-24T01:49:41;25.20;50.80
31867;DHT22;18431;45.580;-122.680;2022-08-24T01:52:15;25.30;51.30
31867;DHT22;18431;45.580;-122.680;2022-08-24T01:54:43;25.30;50.70
31867;DHT22;18431;45.580;-122.680;2022-08-24T01:57:13;25.40;50.70
31867;DHT22;18431;45.580;-122.680;2022-08-24T01:59:44;25.40;50.50
31867;DHT22;18431;45.580;-122.680;2022-08-24T02:02:21;25.40;50.40
31867;DHT22;18431;45.580;-122.680;2022-08-24T02:04:51;25.30;50.30
31867;DHT22;18431;45.580;-122.680;2022-08-24T02:07:23;25.20;50.40
31867;DHT22;18431;45.580;-122.680;2022-08-24T02:09:53;25.10;50.50
31867;DHT22;18431;45.580;-122.680;2022-08-24T02:12:23;25.10;50.70
31867;DHT22;18431;45.580;-122.680;2022-08-24T02:14:53;25.10;50.60
31867;DHT22;18431;45.580;-122.680;2022-08-24T02:17:24;25.10;50.40
31867;DHT22;18431;45.580;-122.680;2022-08-24T02:19:54;25.20;50.50
31867;DHT22;18431;45.580;-122.680;2022-08-24T02:22:25;25.30;50.60
31867;DHT22;18431;45.580;-122.680;2022-08-24T02:24:55;25.30;50.60
31867;DHT22;18431;45.580;-122.680;2022-08-24T02:27:26;25.30;50.60
31867;DHT22;18431;45.580;-122.680;2022-08-24T02:29:56;25.40;50.40
31867;DHT22;18431;45.580;-122.680;2022-08-24T02:32:27;25.40;50.20
31867;DHT22;18431;45.580;-122.680;2022-08-24T02:34:58;25.40;50.00
31867;DHT22;18431;45.580;-122.680;2022-08-24T02:37:28;25.40;50.20
31867;DHT22;18431;45.580;-122.680;2022-08-24T02:39:58;25.30;50.30
31867;DHT22;18431;45.580;-122.680;2022-08-24T02:42:27;25.10;50.80
31867;DHT22;18431;45.580;-122.680;2022-08-24T02:44:59;25.10;50.80
31867;DHT22;18431;45.580;-122.680;2022-08-24T02:47:29;25.00;50.70
31867;DHT22;18431;45.580;-122.680;2022-08-24T02:50:00;25.10;50.60
31867;DHT22;18431;45.580;-122.680;2022-08-24T02:52:31;25.20;50.50
31867;DHT22;18431;45.580;-122.680;2022-08-24T02:55:03;25.20;50.50
31867;DHT22;18431;45.580;-122.680;2022-08-24T02:57:34;25.30;50.60
31867;DHT22;18431;45.580;-122.680;2022-08-24T03:00:07;25.30;50.40
31867;DHT22;18431;45.580;-122.680;2022-08-24T03:02:37;25.40;50.20
31867;DHT22;18431;45.580;-122.680;2022-08-24T03:05:08;25.40;50.10
31867;DHT22;18431;45.580;-122.680;2022-08-24T03:07:38;25.50;50.40
31867;DHT22;18431;45.580;-122.680;2022-08-24T03:10:08;25.50;50.40
31867;DHT22;18431;45.580;-122.680;2022-08-24T03:12:39;25.50;50.30
31867;DHT22;18431;45.580;-122.680;2022-08-24T03:15:10;25.40;50.30
31867;DHT22;18431;45.580;-122.680;2022-08-24T03:17:41;25.20;50.30
31867;DHT22;18431;45.580;-122.680;2022-08-24T03:20:13;25.00;50.40
31867;DHT22;18431;45.580;-122.680;2022-08-24T03:22:43;24.90;50.50
31867;DHT22;18431;45.580;-122.680;2022-08-24T03:25:15;24.70;50.40
31867;DHT22;18431;45.580;-122.680;2022-08-24T03:27:45;24.60;50.60
31867;DHT22;18431;45.580;-122.680;2022-08-24T03:30:15;24.60;51.20
31867;DHT22;18431;45.580;-122.680;2022-08-24T03:32:45;24.60;51.00
31867;DHT22;18431;45.580;-122.680;2022-08-24T03:35:16;24.70;51.10
31867;DHT22;18431;45.580;-122.680;2022-08-24T03:37:49;24.80;51.10
31867;DHT22;18431;45.580;-122.680;2022-08-24T03:40:20;24.90;51.10
31867;DHT22;18431;45.580;-122.680;2022-08-24T03:42:53;25.10;51.10
31867;DHT22;18431;45.580;-122.680;2022-08-24T03:45:22;25.10;51.10
31867;DHT22;18431;45.580;-122.680;2022-08-24T03:47:52;25.20;50.70
31867;DHT22;18431;45.580;-122.680;2022-08-24T03:50:23;25.30;50.50
31867;DHT22;18431;45.580;-122.680;2022-08-24T03:52:56;25.40;50.20
31867;DHT22;18431;45.580;-122.680;2022-08-24T03:55:25;25.50;51.10
31867;DHT22;18431;45.580;-122.680;2022-08-24T03:57:55;25.50;50.70
31867;DHT22;18431;45.580;-122.680;2022-08-24T04:00:25;25.60;50.70
31867;DHT22;18431;45.580;-122.680;2022-08-24T04:02:55;25.60;50.30
31867;DHT22;18431;45.580;-122.680;2022-08-24T04:05:25;25.70;50.40
31867;DHT22;18431;45.580;-122.680;2022-08-24T04:07:56;25.70;50.10
31867;DHT22;18431;45.580;-122.680;2022-08-24T04:10:26;25.70;49.90
31867;DHT22;18431;45.580;-122.680;2022-08-24T04:12:56;25.80;49.80
31867;DHT22;18431;45.580;-122.680;2022-08-24T04:15:26;25.80;49.70
31867;DHT22;18431;45.580;-122.680;2022-08-24T04:17:57;25.90;49.60
31867;DHT22;18431;45.580;-122.680;2022-08-24T04:20:27;25.90;49.40
31867;DHT22;18431;45.580;-122.680;2022-08-24T04:22:57;26.00;49.40
31867;DHT22;18431;45.580;-122.680;2022-08-24T04:25:28;26.00;49.80
31867;DHT22;18431;45.580;-122.680;2022-08-24T04:27:58;26.00;49.90
31867;DHT22;18431;45.580;-122.680;2022-08-24T04:30:28;26.00;49.90
31867;DHT22;18431;45.580;-122.680;2022-08-24T04:32:58;26.00;50.20
31867;DHT22;18431;45.580;-122.680;2022-08-24T04:35:35;26.00;50.20
31867;DHT22;18431;45.580;-122.680;2022-08-24T04:38:01;26.00;50.50
31867;DHT22;18431;45.580;-122.680;2022-08-24T04:40:32;26.00;50.60
31867;DHT22;18431;45.580;-122.680;2022-08-24T04:43:03;26.00;50.80
31867;DHT22;18431;45.580;-122.680;2022-08-24T04:45:36;26.00;50.70
31867;DHT22;18431;45.580;-122.680;2022-08-24T04:48:05;26.00;50.60
31867;DHT22;18431;45.580;-122.680;2022-08-24T04:50:37;25.80;50.50
31867;DHT22;18431;45.580;-122.680;2022-08-24T04:53:07;25.70;50.50
31867;DHT22;18431;45.580;-122.680;2022-08-24T04:55:49;25.60;50.50
31867;DHT22;18431;45.580;-122.680;2022-08-24T04:58:19;25.50;50.60
31867;DHT22;18431;45.580;-122.680;2022-08-24T05:00:49;25.50;50.40
31867;DHT22;18431;45.580;-122.680;2022-08-24T05:03:19;25.40;50.20
31867;DHT22;18431;45.580;-122.680;2022-08-24T05:05:50;25.50;50.30
31867;DHT22;18431;45.580;-122.680;2022-08-24T05:08:20;25.50;50.40
31867;DHT22;18431;45.580;-122.680;2022-08-24T05:10:50;25.50;50.40
31867;DHT22;18431;45.580;-122.680;2022-08-24T05:13:20;25.60;50.60
31867;DHT22;18431;45.580;-122.680;2022-08-24T05:15:50;25.70;50.80
31867;DHT22;18431;45.580;-122.680;2022-08-24T05:18:20;25.70;50.80
31867;DHT22;18431;45.580;-122.680;2022-08-24T05:20:50;25.70;51.00
31867;DHT22;18431;45.580;-122.680;2022-08-24T05:23:24;25.70;51.30
31867;DHT22;18431;45.580;-122.680;2022-08-24T05:26:04;25.80;51.40
31867;DHT22;18431;45.580;-122.680;2022-08-24T05:28:33;25.90;51.30
31867;DHT22;18431;45.580;-122.680;2022-08-24T05:31:17;25.80;50.90
31867;DHT22;18431;45.580;-122.680;2022-08-24T05:33:49;25.90;50.70
31867;DHT22;18431;45.580;-122.680;2022-08-24T05:36:27;25.90;50.50
31867;DHT22;18431;45.580;-122.680;2022-08-24T05:38:59;26.00;50.50
31867;DHT22;18431;45.580;-122.680;2022-08-24T05:44:27;26.00;50.10
31867;DHT22;18431;45.580;-122.680;2022-08-24T05:47:17;26.00;50.10
31867;DHT22;18431;45.580;-122.680;2022-08-24T05:49:49;26.00;49.90
31867;DHT22;18431;45.580;-122.680;2022-08-24T05:52:21;26.00;49.80
31867;DHT22;18431;45.580;-122.680;2022-08-24T05:54:53;26.10;49.70
31867;DHT22;18431;45.580;-122.680;2022-08-24T05:57:25;26.10;49.60
31867;DHT22;18431;45.580;-122.680;2022-08-24T05:59:56;26.10;49.50
31867;DHT22;18431;45.580;-122.680;2022-08-24T06:02:26;26.10;49.50
31867;DHT22;18431;45.580;-122.680;2022-08-24T06:04:57;26.10;49.30
31867;DHT22;18431;45.580;-122.680;2022-08-24T06:07:28;26.20;49.60
31867;DHT22;18431;45.580;-122.680;2022-08-24T06:09:58;26.20;49.70
31867;DHT22;18431;45.580;-122.680;2022-08-24T06:12:28;26.20;49.70
31867;DHT22;18431;45.580;-122.680;2022-08-24T06:14:58;26.20;49.70
31867;DHT22;18431;45.580;-122.680;2022-08-24T06:17:29;26.20;49.60
31867;DHT22;18431;45.580;-122.680;2022-08-24T06:19:59;26.20;49.50
31867;DHT22;18431;45.580;-122.680;2022-08-24T06:22:32;26.30;49.50
31867;DHT22;18431;45.580;-122.680;2022-08-24T06:25:03;26.20;49.30
31867;DHT22;18431;45.580;-122.680;2022-08-24T06:27:51;26.30;49.50
31867;DHT22;18431;45.580;-122.680;2022-08-24T06:30:21;26.30;49.60
31867;DHT22;18431;45.580;-122.680;2022-08-24T06:32:51;26.30;49.80
31867;DHT22;18431;45.580;-122.680;2022-08-24T06:35:21;26.30;50.00
31867;DHT22;18431;45.580;-122.680;2022-08-24T06:37:51;26.30;50.30
31867;DHT22;18431;45.580;-122.680;2022-08-24T06:40:21;26.30;50.50
31867;DHT22;18431;45.580;-122.680;2022-08-24T06:42:51;26.30;50.30
31867;DHT22;18431;45.580;-122.680;2022-08-24T06:45:21;26.40;50.30
31867;DHT22;18431;45.580;-122.680;2022-08-24T06:48:11;26.40;50.00
31867;DHT22;18431;45.580;-122.680;2022-08-24T06:51:00;26.40;49.90
31867;DHT22;18431;45.580;-122.680;2022-08-24T06:53:29;26.40;49.70
31867;DHT22;18431;45.580;-122.680;2022-08-24T06:56:00;26.40;49.60
31867;DHT22;18431;45.580;-122.680;2022-08-24T06:58:30;26.40;49.50
31867;DHT22;18431;45.580;-122.680;2022-08-24T07:03:41;26.40;49.30
31867;DHT22;18431;45.580;-122.680;2022-08-24T07:06:13;26.40;49.20
31867;DHT22;18431;45.580;-122.680;2022-08-24T07:08:43;26.40;49.30
31867;DHT22;18431;45.580;-122.680;2022-08-24T07:11:14;26.40;49.40
31867;DHT22;18431;45.580;-122.680;2022-08-24T07:13:46;26.40;49.20
31867;DHT22;18431;45.580;-122.680;2022-08-24T07:16:20;26.40;49.30
31867;DHT22;18431;45.580;-122.680;2022-08-24T07:18:48;26.40;49.20
31867;DHT22;18431;45.580;-122.680;2022-08-24T07:21:21;26.40;49.30
31867;DHT22;18431;45.580;-122.680;2022-08-24T07:23:57;26.40;49.30
31867;DHT22;18431;45.580;-122.680;2022-08-24T07:26:23;26.40;49.30
31867;DHT22;18431;45.580;-122.680;2022-08-24T07:28:56;26.40;49.20
31867;DHT22;18431;45.580;-122.680;2022-08-24T07:31:28;26.50;49.20
31867;DHT22;18431;45.580;-122.680;2022-08-24T07:33:58;26.40;49.10
31867;DHT22;18431;45.580;-122.680;2022-08-24T07:36:27;26.50;49.30
31867;DHT22;18431;45.580;-122.680;2022-08-24T07:38:57;26.50;49.30
31867;DHT22;18431;45.580;-122.680;2022-08-24T07:41:27;26.50;49.20
31867;DHT22;18431;45.580;-122.680;2022-08-24T07:44:04;26.50;49.10
31867;DHT22;18431;45.580;-122.680;2022-08-24T07:46:35;26.50;49.10
31867;DHT22;18431;45.580;-122.680;2022-08-24T07:49:08;26.50;49.10
31867;DHT22;18431;45.580;-122.680;2022-08-24T07:51:40;26.50;49.30
31867;DHT22;18431;45.580;-122.680;2022-08-24T07:54:09;26.50;49.30
31867;DHT22;18431;45.580;-122.680;2022-08-24T07:56:41;26.50;49.10
31867;DHT22;18431;45.580;-122.680;2022-08-24T07:59:12;26.50;49.10
31867;DHT22;18431;45.580;-122.680;2022-08-24T08:01:42;26.50;49.10
31867;DHT22;18431;45.580;-122.680;2022-08-24T08:04:12;26.50;49.10
31867;DHT22;18431;45.580;-122.680;2022-08-24T08:06:42;26.50;49.10
31867;DHT22;18431;45.580;-122.680;2022-08-24T08:09:12;26.50;49.10
31867;DHT22;18431;45.580;-122.680;2022-08-24T08:11:42;26.50;49.10
31867;DHT22;18431;45.580;-122.680;2022-08-24T08:14:14;26.60;49.10
31867;DHT22;18431;45.580;-122.680;2022-08-24T08:16:43;26.50;49.10
31867;DHT22;18431;45.580;-122.680;2022-08-24T08:19:14;26.60;49.40
31867;DHT22;18431;45.580;-122.680;2022-08-24T08:21:46;26.50;49.70
31867;DHT22;18431;45.580;-122.680;2022-08-24T08:24:34;26.60;49.90
31867;DHT22;18431;45.580;-122.680;2022-08-24T08:27:05;26.60;50.00
31867;DHT22;18431;45.580;-122.680;2022-08-24T08:29:36;26.50;49.80
31867;DHT22;18431;45.580;-122.680;2022-08-24T08:32:09;26.60;49.70
31867;DHT22;18431;45.580;-122.680;2022-08-24T08:34:40;26.60;49.70
31867;DHT22;18431;45.580;-122.680;2022-08-24T08:37:11;26.60;49.50
31867;DHT22;18431;45.580;-122.680;2022-08-24T08:39:41;26.60;49.40
31867;DHT22;18431;45.580;-122.680;2022-08-24T08:42:35;26.60;49.20
31867;DHT22;18431;45.580;-122.680;2022-08-24T08:56:55;26.60;49.20
31867;DHT22;18431;45.580;-122.680;2022-08-24T08:59:46;26.50;49.30
31867;DHT22;18431;45.580;-122.680;2022-08-24T09:21:44;26.50;49.60
31867;DHT22;18431;45.580;-122.680;2022-08-24T09:33:14;26.50;49.40
31867;DHT22;18431;45.580;-122.680;2022-08-24T09:47:18;26.50;49.20
31867;DHT22;18431;45.580;-122.680;2022-08-24T10:04:29;26.50;49.80
31867;DHT22;18431;45.580;-122.680;2022-08-24T10:07:02;26.50;50.10
31867;DHT22;18431;45.580;-122.680;2022-08-24T10:12:56;26.50;49.80
31867;DHT22;18431;45.580;-122.680;2022-08-24T10:15:30;26.60;49.70
31867;DHT22;18431;45.580;-122.680;2022-08-24T10:18:24;26.50;49.60
31867;DHT22;18431;45.580;-122.680;2022-08-24T10:24:14;26.50;49.30
31867;DHT22;18431;45.580;-122.680;2022-08-24T10:32:39;26.50;49.20
31867;DHT22;18431;45.580;-122.680;2022-08-24T10:35:24;26.50;49.20
31867;DHT22;18431;45.580;-122.680;2022-08-24T10:37:57;26.60;49.30
31867;DHT22;18431;45.580;-122.680;2022-08-24T10:40:35;26.60;49.30
31867;DHT22;18431;45.580;-122.680;2022-08-24T10:55:13;26.60;49.10
31867;DHT22;18431;45.580;-122.680;2022-08-24T10:57:58;26.60;49.10
31867;DHT22;18431;45.580;-122.680;2022-08-24T11:00:28;26.60;49.00
31867;DHT22;18431;45.580;-122.680;2022-08-24T11:03:07;26.60;48.90
31867;DHT22;18431;45.580;-122.680;2022-08-24T11:05:56;26.60;49.00
31867;DHT22;18431;45.580;-122.680;2022-08-24T11:08:28;26.60;49.00
31867;DHT22;18431;45.580;-122.680;2022-08-24T11:11:09;26.60;49.10
31867;DHT22;18431;45.580;-122.680;2022-08-24T11:13:54;26.60;49.10
31867;DHT22;18431;45.580;-122.680;2022-08-24T11:16:33;26.60;49.10
31867;DHT22;18431;45.580;-122.680;2022-08-24T11:19:06;26.60;48.90
31867;DHT22;18431;45.580;-122.680;2022-08-24T11:21:44;26.60;49.20
31867;DHT22;18431;45.580;-122.680;2022-08-24T11:26:56;26.70;49.40
31867;DHT22;18431;45.580;-122.680;2022-08-24T11:29:28;26.60;49.50
31867;DHT22;18431;45.580;-122.680;2022-08-24T11:31:59;26.60;49.70
31867;DHT22;18431;45.580;-122.680;2022-08-24T11:34:37;26.60;49.60
31867;DHT22;18431;45.580;-122.680;2022-08-24T11:37:09;26.60;49.50
31867;DHT22;18431;45.580;-122.680;2022-08-24T11:39:39;26.60;49.40
31867;DHT22;18431;45.580;-122.680;2022-08-24T11:45:35;26.70;49.20
31867;DHT22;18431;45.580;-122.680;2022-08-24T11:48:34;26.70;49.00
31867;DHT22;18431;45.580;-122.680;2022-08-24T11:56:40;26.70;49.50
31867;DHT22;18431;45.580;-122.680;2022-08-24T11:59:21;26.70;48.90
31867;DHT22;18431;45.580;-122.680;2022-08-24T12:02:03;26.60;48.80
31867;DHT22;18431;45.580;-122.680;2022-08-24T12:04:38;26.60;49.10
31867;DHT22;18431;45.580;-122.680;2022-08-24T12:09:59;26.70;49.40
31867;DHT22;18431;45.580;-122.680;2022-08-24T12:15:15;26.60;49.70
31867;DHT22;18431;45.580;-122.680;2022-08-24T12:17:52;26.60;49.60
31867;DHT22;18431;45.580;-122.680;2022-08-24T12:20:42;26.60;49.40
31867;DHT22;18431;45.580;-122.680;2022-08-24T12:26:08;26.60;49.20
31867;DHT22;18431;45.580;-122.680;2022-08-24T12:28:46;26.60;49.20
31867;DHT22;18431;45.580;-122.680;2022-08-24T12:31:18;26.60;49.20
31867;DHT22;18431;45.580;-122.680;2022-08-24T12:33:50;26.60;49.10
31867;DHT22;18431;45.580;-122.680;2022-08-24T12:36:29;26.70;49.10
31867;DHT22;18431;45.580;-122.680;2022-08-24T12:39:05;26.60;49.00
31867;DHT22;18431;45.580;-122.680;2022-08-24T12:41:32;26.60;48.90
31867;DHT22;18431;45.580;-122.680;2022-08-24T12:44:06;26.70;49.20
31867;DHT22;18431;45.580;-122.680;2022-08-24T12:46:38;26.70;49.20
31867;DHT22;18431;45.580;-122.680;2022-08-24T12:49:27;26.70;49.50
31867;DHT22;18431;45.580;-122.680;2022-08-24T13:00:17;26.70;49.40
31867;DHT22;18431;45.580;-122.680;2022-08-24T13:02:54;26.60;49.20
31867;DHT22;18431;45.580;-122.680;2022-08-24T13:05:18;26.60;49.20
31867;DHT22;18431;45.580;-122.680;2022-08-24T13:07:50;26.60;49.20
31867;DHT22;18431;45.580;-122.680;2022-08-24T13:13:19;26.70;49.20
31867;DHT22;18431;45.580;-122.680;2022-08-24T13:20:53;26.70;49.60
31867;DHT22;18431;45.580;-122.680;2022-08-24T13:23:23;26.70;49.70
31867;DHT22;18431;45.580;-122.680;2022-08-24T13:25:56;26.70;49.50
31867;DHT22;18431;45.580;-122.680;2022-08-24T13:28:46;26.70;49.40
31867;DHT22;18431;45.580;-122.680;2022-08-24T13:31:36;26.70;49.20
31867;DHT22;18431;45.580;-122.680;2022-08-24T13:36:51;26.70;49.30
31867;DHT22;18431;45.580;-122.680;2022-08-24T13:42:55;26.70;49.70
31867;DHT22;18431;45.580;-122.680;2022-08-24T13:59:14;26.60;49.30
31867;DHT22;18431;45.580;-122.680;2022-08-24T14:07:23;26.60;49.40
31867;DHT22;18431;45.580;-122.680;2022-08-24T14:12:52;26.60;49.70
31867;DHT22;18431;45.580;-122.680;2022-08-24T14:21:09;26.60;50.00
31867;DHT22;18431;45.580;-122.680;2022-08-24T14:29:28;26.50;49.50
31867;DHT22;18431;45.580;-122.680;2022-08-24T14:34:58;26.50;49.90
31867;DHT22;18431;45.580;-122.680;2022-08-24T14:37:50;26.50;49.80
31867;DHT22;18431;45.580;-122.680;2022-08-24T14:43:23;26.50;49.60
31867;DHT22;18431;45.580;-122.680;2022-08-24T14:49:07;26.50;49.40
31867;DHT22;18431;45.580;-122.680;2022-08-24T14:51:58;26.50;49.50
31867;DHT22;18431;45.580;-122.680;2022-08-24T14:55:07;26.50;49.50
31867;DHT22;18431;45.580;-122.680;2022-08-24T15:09:30;26.50;49.30
31867;DHT22;18431;45.580;-122.680;2022-08-24T15:11:59;26.50;49.50
31867;DHT22;18431;45.580;-122.680;2022-08-24T15:14:40;26.50;49.60
31867;DHT22;18431;45.580;-122.680;2022-08-24T15:17:13;26.50;49.60
31867;DHT22;18431;45.580;-122.680;2022-08-24T15:25:10;26.50;49.30
31867;DHT22;18431;45.580;-122.680;2022-08-24T15:27:59;26.50;49.30
31867;DHT22;18431;45.580;-122.680;2022-08-24T15:30:32;26.50;49.20
31867;DHT22;18431;45.580;-122.680;2022-08-24T15:33:13;26.50;49.30
31867;DHT22;18431;45.580;-122.680;2022-08-24T15:35:45;26.50;49.30
31867;DHT22;18431;45.580;-122.680;2022-08-24T15:38:23;26.50;49.20
31867;DHT22;18431;45.580;-122.680;2022-08-24T15:41:22;26.50;49.30
31867;DHT22;18431;45.580;-122.680;2022-08-24T15:46:23;26.50;49.30
31867;DHT22;18431;45.580;-122.680;2022-08-24T15:48:58;26.50;49.40
31867;DHT22;18431;45.580;-122.680;2022-08-24T15:54:25;26.50;49.60
31867;DHT22;18431;45.580;-122.680;2022-08-24T15:56:51;26.50;49.70
31867;DHT22;18431;45.580;-122.680;2022-08-24T16:10:36;26.50;50.00
31867;DHT22;18431;45.580;-122.680;2022-08-24T16:13:23;26.50;49.80
31867;DHT22;18431;45.580;-122.680;2022-08-24T16:16:03;26.50;49.70
31867;DHT22;18431;45.580;-122.680;2022-08-24T16:19:16;26.50;49.60
31867;DHT22;18431;45.580;-122.680;2022-08-24T16:20:58;26.50;49.70
31867;DHT22;18431;45.580;-122.680;2022-08-24T16:23:30;26.50;49.80
31867;DHT22;18431;45.580;-122.680;2022-08-24T16:26:20;26.50;49.80
31867;DHT22;18431;45.580;-122.680;2022-08-24T16:28:50;26.50;50.00
31867;DHT22;18431;45.580;-122.680;2022-08-24T16:31:46;26.60;50.20
31867;DHT22;18431;45.580;-122.680;2022-08-24T16:34:30;26.60;50.30
31867;DHT22;18431;45.580;-122.680;2022-08-24T16:37:00;26.50;50.00
31867;DHT22;18431;45.580;-122.680;2022-08-24T16:39:32;26.50;50.00
31867;DHT22;18431;45.580;-122.680;2022-08-24T16:42:04;26.50;49.80
31867;DHT22;18431;45.580;-122.680;2022-08-24T16:44:41;26.50;49.80
31867;DHT22;18431;45.580;-122.680;2022-08-24T16:47:10;26.50;49.60
31867;DHT22;18431;45.580;-122.680;2022-08-24T16:49:42;26.50;49.60
31867;DHT22;18431;45.580;-122.680;2022-08-24T16:52:12;26.50;49.50
31867;DHT22;18431;45.580;-122.680;2022-08-24T16:55:00;26.60;49.60
31867;DHT22;18431;45.580;-122.680;2022-08-24T16:57:32;26.60;49.60
31867;DHT22;18431;45.580;-122.680;2022-08-24T17:00:11;26.60;49.50
31867;DHT22;18431;45.580;-122.680;2022-08-24T17:02:43;26.60;49.40
31867;DHT22;18431;45.580;-122.680;2022-08-24T17:05:15;26.60;49.40
31867;DHT22;18431;45.580;-122.680;2022-08-24T17:07:46;26.60;49.30
31867;DHT22;18431;45.580;-122.680;2022-08-24T17:10:19;26.60;49.30
31867;DHT22;18431;45.580;-122.680;2022-08-24T17:12:50;26.60;49.40
31867;DHT22;18431;45.580;-122.680;2022-08-24T17:15:20;26.60;49.40
31867;DHT22;18431;45.580;-122.680;2022-08-24T17:18:05;26.60;49.30
31867;DHT22;18431;45.580;-122.680;2022-08-24T17:20:28;26.60;49.20
31867;DHT22;18431;45.580;-122.680;2022-08-24T17:22:58;26.60;49.10
31867;DHT22;18431;45.580;-122.680;2022-08-24T17:25:28;26.60;49.10
31867;DHT22;18431;45.580;-122.680;2022-08-24T17:28:03;26.60;48.90
31867;DHT22;18431;45.580;-122.680;2022-08-24T17:30:33;26.60;49.10
31867;DHT22;18431;45.580;-122.680;2022-08-24T17:33:03;26.70;49.20
31867;DHT22;18431;45.580;-122.680;2022-08-24T17:35:35;26.60;49.30
31867;DHT22;18431;45.580;-122.680;2022-08-24T17:38:05;26.60;49.50
31867;DHT22;18431;45.580;-122.680;2022-08-24T17:40:38;26.60;49.80
31867;DHT22;18431;45.580;-122.680;2022-08-24T17:43:08;26.60;50.00
31867;DHT22;18431;45.580;-122.680;2022-08-24T17:45:40;26.60;50.10
31867;DHT22;18431;45.580;-122.680;2022-08-24T17:48:29;26.60;50.30
31867;DHT22;18431;45.580;-122.680;2022-08-24T17:51:00;26.60;50.20
31867;DHT22;18431;45.580;-122.680;2022-08-24T17:53:30;26.60;50.10
31867;DHT22;18431;45.580;-122.680;2022-08-24T17:56:02;26.60;49.80
31867;DHT22;18431;45.580;-122.680;2022-08-24T17:58:32;26.60;49.70
31867;DHT22;18431;45.580;-122.680;2022-08-24T18:01:03;26.60;49.60
31867;DHT22;18431;45.580;-122.680;2022-08-24T18:03:33;26.60;49.40
31867;DHT22;18431;45.580;-122.680;2022-08-24T18:06:05;26.70;49.40
31867;DHT22;18431;45.580;-122.680;2022-08-24T18:08:35;26.70;50.00
31867;DHT22;18431;45.580;-122.680;2022-08-24T18:11:05;26.70;49.20
31867;DHT22;18431;45.580;-122.680;2022-08-24T18:13:35;26.70;49.20
31867;DHT22;18431;45.580;-122.680;2022-08-24T18:16:10;26.70;49.10
31867;DHT22;18431;45.580;-122.680;2022-08-24T18:18:37;26.70;49.10
31867;DHT22;18431;45.580;-122.680;2022-08-24T18:21:14;26.70;49.00
31867;DHT22;18431;45.580;-122.680;2022-08-24T18:26:28;26.70;48.90
31867;DHT22;18431;45.580;-122.680;2022-08-24T18:28:59;26.70;48.50
31867;DHT22;18431;45.580;-122.680;2022-08-24T18:31:30;26.70;49.20
31867;DHT22;18431;45.580;-122.680;2022-08-24T18:34:04;26.60;49.00
31867;DHT22;18431;45.580;-122.680;2022-08-24T18:36:52;26.40;49.00
31867;DHT22;18431;45.580;-122.680;2022-08-24T18:39:24;26.30;49.20
31867;DHT22;18431;45.580;-122.680;2022-08-24T18:41:56;26.00;49.30
31867;DHT22;18431;45.580;-122.680;2022-08-24T18:44:27;25.90;49.40
31867;DHT22;18431;45.580;-122.680;2022-08-24T18:46:56;25.70;49.80
31867;DHT22;18431;45.580;-122.680;2022-08-24T18:49:28;25.70;50.00
31867;DHT22;18431;45.580;-122.680;2022-08-24T18:51:58;25.70;49.90
31867;DHT22;18431;45.580;-122.680;2022-08-24T18:54:34;25.80;49.90
31867;DHT22;18431;45.580;-122.680;2022-08-24T18:57:03;25.80;49.90
31867;DHT22;18431;45.580;-122.680;2022-08-24T18:59:35;25.90;50.00
31867;DHT22;18431;45.580;-122.680;2022-08-24T19:02:17;25.90;49.80
31867;DHT22;18431;45.580;-122.680;2022-08-24T19:07:33;26.00;49.40